sensor_id;sensor_type;location;lat;lon;timestamp;pressure;altitude;pressure_sealevel;temperature;humidity
31121;BME280;17770;45.966;13.632;2023-02-03T00:00:21;101417.03;;;13.19;60.70
31121;BME280;17770;45.966;13.632;2023-02-03T00:02:47;101413.56;;;13.18;60.53
31121;BME280;17770;45.966;13.632;2023-02-03T00:05:13;101417.88;;;13.18;60.45
31121;BME280;17770;45.966;13.632;2023-02-03T00:07:39;101418.75;;;13.18;59.94
31121;BME280;17770;45.966;13.632;2023-02-03T00:10:05;101421.34;;;13.18;59.97
31121;BME280;17770;45.966;13.632;2023-02-03T00:12:31;101424.84;;;13.17;60.45
31121;BME280;17770;45.966;13.632;2023-02-03T00:14:58;101417.97;;;13.15;60.55
31121;BME280;17770;45.966;13.632;2023-02-03T00:17:24;101417.97;;;13.15;60.70
31121;BME280;17770;45.966;13.632;2023-02-03T00:19:49;101411.03;;;13.17;60.61
31121;BME280;17770;45.966;13.632;2023-02-03T00:22:15;101416.19;;;13.17;60.03
31121;BME280;17770;45.966;13.632;2023-02-03T00:24:41;101429.16;;;13.17;59.87
31121;BME280;17770;45.966;13.632;2023-02-03T00:27:07;101424.84;;;13.16;60.55
31121;BME280;17770;45.966;13.632;2023-02-03T00:29:33;101430.00;;;13.16;60.91
31121;BME280;17770;45.966;13.632;2023-02-03T00:31:59;101430.88;;;13.16;60.34
31121;BME280;17770;45.966;13.632;2023-02-03T00:34:28;101436.91;;;13.17;59.74
31121;BME280;17770;45.966;13.632;2023-02-03T00:36:54;101442.13;;;13.15;60.07
31121;BME280;17770;45.966;13.632;2023-02-03T00:39:20;101443.00;;;13.14;60.46
31121;BME280;17770;45.966;13.632;2023-02-03T00:41:46;101437.81;;;13.14;59.76
31121;BME280;17770;45.966;13.632;2023-02-03T00:44:13;101432.63;;;13.14;59.69
31121;BME280;17770;45.966;13.632;2023-02-03T00:46:39;101439.53;;;13.15;60.45
31121;BME280;17770;45.966;13.632;2023-02-03T00:49:05;101440.41;;;13.14;60.17
31121;BME280;17770;45.966;13.632;2023-02-03T00:51:31;101448.19;;;13.14;60.40
31121;BME280;17770;45.966;13.632;2023-02-03T00:53:57;101440.41;;;13.14;60.11
31121;BME280;17770;45.966;13.632;2023-02-03T00:56:23;101462.88;;;13.14;60.71
31121;BME280;17770;45.966;13.632;2023-02-03T00:58:49;101478.44;;;13.14;60.42
31121;BME280;17770;45.966;13.632;2023-02-03T01:01:15;101481.88;;;13.13;59.71
31121;BME280;17770;45.966;13.632;2023-02-03T01:03:41;101478.44;;;13.14;60.48
31121;BME280;17770;45.966;13.632;2023-02-03T01:06:13;101483.59;;;13.14;60.52
31121;BME280;17770;45.966;13.632;2023-02-03T01:08:40;101475.00;;;13.12;60.05
31121;BME280;17770;45.966;13.632;2023-02-03T01:11:07;101467.25;;;13.12;60.35
31121;BME280;17770;45.966;13.632;2023-02-03T01:13:33;101477.59;;;13.12;60.32
31121;BME280;17770;45.966;13.632;2023-02-03T01:15:59;101477.59;;;13.12;60.40
31121;BME280;17770;45.966;13.632;2023-02-03T01:18:25;101479.31;;;13.11;60.05
31121;BME280;17770;45.966;13.632;2023-02-03T01:20:51;101485.41;;;13.10;60.33
31121;BME280;17770;45.966;13.632;2023-02-03T01:23:17;101482.78;;;13.12;60.24
31121;BME280;17770;45.966;13.632;2023-02-03T01:25:43;101479.38;;;13.09;59.88
31121;BME280;17770;45.966;13.632;2023-02-03T01:28:08;101472.50;;;13.08;59.72
31121;BME280;17770;45.966;13.632;2023-02-03T01:30:34;101469.00;;;13.09;59.99
31121;BME280;17770;45.966;13.632;2023-02-03T01:33:02;101475.09;;;13.08;60.03
31121;BME280;17770;45.966;13.632;2023-02-03T01:35:28;101475.91;;;13.09;59.91
31121;BME280;17770;45.966;13.632;2023-02-03T01:37:54;101476.78;;;13.09;59.93
31121;BME280;17770;45.966;13.632;2023-02-03T01:40:20;101467.31;;;13.08;60.33
31121;BME280;17770;45.966;13.632;2023-02-03T01:42:45;101476.81;;;13.08;60.43
31121;BME280;17770;45.966;13.632;2023-02-03T01:45:11;101485.47;;;13.07;59.85
31121;BME280;17770;45.966;13.632;2023-02-03T01:47:45;101477.72;;;13.07;60.23
31121;BME280;17770;45.966;13.632;2023-02-03T01:52:39;101466.50;;;13.06;60.32
31121;BME280;17770;45.966;13.632;2023-02-03T01:55:07;101469.09;;;13.06;60.13
31121;BME280;17770;45.966;13.632;2023-02-03T01:57:45;101470.81;;;13.06;59.88
31121;BME280;17770;45.966;13.632;2023-02-03T02:00:13;101466.53;;;13.05;60.29
31121;BME280;17770;45.966;13.632;2023-02-03T02:02:39;101474.34;;;13.03;59.74
31121;BME280;17770;45.966;13.632;2023-02-03T02:05:27;101464.81;;;13.04;59.70
31121;BME280;17770;45.966;13.632;2023-02-03T02:07:54;101466.56;;;13.03;59.85
31121;BME280;17770;45.966;13.632;2023-02-03T02:10:21;101458.78;;;13.03;60.45
31121;BME280;17770;45.966;13.632;2023-02-03T02:12:47;101460.56;;;13.01;59.65
31121;BME280;17770;45.966;13.632;2023-02-03T02:15:13;101459.66;;;13.02;59.74
31121;BME280;17770;45.966;13.632;2023-02-03T02:20:36;101455.38;;;13.00;60.18
31121;BME280;17770;45.966;13.632;2023-02-03T02:23:27;101451.06;;;13.02;60.10
31121;BME280;17770;45.966;13.632;2023-02-03T02:28:50;101448.47;;;13.00;60.60
31121;BME280;17770;45.966;13.632;2023-02-03T02:39:18;101451.06;;;12.99;59.82
31121;BME280;17770;45.966;13.632;2023-02-03T02:41:51;101454.56;;;12.98;60.14
31121;BME280;17770;45.966;13.632;2023-02-03T02:46:47;101459.72;;;12.98;59.94
31121;BME280;17770;45.966;13.632;2023-02-03T02:49:19;101454.56;;;12.98;59.75
31121;BME280;17770;45.966;13.632;2023-02-03T02:51:47;101456.28;;;12.97;59.83
31121;BME280;17770;45.966;13.632;2023-02-03T02:54:15;101456.31;;;12.96;60.43
31121;BME280;17770;45.966;13.632;2023-02-03T02:56:43;101456.31;;;12.96;59.97
31121;BME280;17770;45.966;13.632;2023-02-03T02:59:10;101442.56;;;12.95;59.35
31121;BME280;17770;45.966;13.632;2023-02-03T03:01:37;101455.50;;;12.95;60.06
31121;BME280;17770;45.966;13.632;2023-02-03T03:04:08;101462.41;;;12.95;59.76
31121;BME280;17770;45.966;13.632;2023-02-03T03:06:39;101461.53;;;12.94;59.67
31121;BME280;17770;45.966;13.632;2023-02-03T03:09:11;101458.97;;;12.93;59.81
31121;BME280;17770;45.966;13.632;2023-02-03T03:11:41;101452.94;;;12.92;59.79
31121;BME280;17770;45.966;13.632;2023-02-03T03:14:09;101465.88;;;12.94;60.27
31121;BME280;17770;45.966;13.632;2023-02-03T03:16:37;101463.31;;;12.92;60.13
31121;BME280;17770;45.966;13.632;2023-02-03T03:19:11;101466.75;;;12.93;59.56
31121;BME280;17770;45.966;13.632;2023-02-03T03:21:40;101480.59;;;12.92;59.82
31121;BME280;17770;45.966;13.632;2023-02-03T03:24:09;101485.78;;;12.92;59.94
31121;BME280;17770;45.966;13.632;2023-02-03T03:26:41;101478.91;;;12.89;59.91
31121;BME280;17770;45.966;13.632;2023-02-03T03:29:15;101475.44;;;12.90;59.63
31121;BME280;17770;45.966;13.632;2023-02-03T03:31:43;101481.47;;;12.91;60.46
31121;BME280;17770;45.966;13.632;2023-02-03T03:34:10;101480.66;;;12.89;59.57
31121;BME280;17770;45.966;13.632;2023-02-03T03:36:59;101480.66;;;12.87;59.55
31121;BME280;17770;45.966;13.632;2023-02-03T03:42:04;101496.19;;;12.89;59.85
31121;BME280;17770;45.966;13.632;2023-02-03T03:44:34;101491.88;;;12.88;59.85
31121;BME280;17770;45.966;13.632;2023-02-03T03:47:05;101497.09;;;12.86;60.02
31121;BME280;17770;45.966;13.632;2023-02-03T03:49:34;101497.09;;;12.86;60.20
31121;BME280;17770;45.966;13.632;2023-02-03T03:52:03;101501.41;;;12.86;59.56
31121;BME280;17770;45.966;13.632;2023-02-03T03:54:31;101502.28;;;12.86;60.45
31121;BME280;17770;45.966;13.632;2023-02-03T03:59:43;101503.16;;;12.85;60.00
31121;BME280;17770;45.966;13.632;2023-02-03T04:02:10;101503.19;;;12.84;59.87
31121;BME280;17770;45.966;13.632;2023-02-03T04:04:37;101510.97;;;12.84;59.80
31121;BME280;17770;45.966;13.632;2023-02-03T04:07:04;101525.59;;;12.85;59.79
31121;BME280;17770;45.966;13.632;2023-02-03T04:09:30;101528.22;;;12.83;59.37
31121;BME280;17770;45.966;13.632;2023-02-03T04:11:56;101528.22;;;12.83;59.50
31121;BME280;17770;45.966;13.632;2023-02-03T04:14:28;101524.78;;;12.83;60.07
31121;BME280;17770;45.966;13.632;2023-02-03T04:16:55;101529.13;;;12.82;59.47
31121;BME280;17770;45.966;13.632;2023-02-03T04:19:22;101524.78;;;12.83;59.96
31121;BME280;17770;45.966;13.632;2023-02-03T04:21:48;101517.91;;;12.82;59.39
31121;BME280;17770;45.966;13.632;2023-02-03T04:24:13;101527.34;;;12.83;59.36
31121;BME280;17770;45.966;13.632;2023-02-03T04:26:39;101529.13;;;12.82;60.11
31121;BME280;17770;45.966;13.632;2023-02-03T04:29:05;101527.44;;;12.80;59.65
31121;BME280;17770;45.966;13.632;2023-02-03T04:31:31;101526.53;;;12.81;60.39
31121;BME280;17770;45.966;13.632;2023-02-03T04:33:57;101529.13;;;12.81;59.53
31121;BME280;17770;45.966;13.632;2023-02-03T04:36:23;101538.69;;;12.79;59.84
31121;BME280;17770;45.966;13.632;2023-02-03T04:38:49;101530.91;;;12.79;59.68
31121;BME280;17770;45.966;13.632;2023-02-03T04:41:15;101536.09;;;12.79;60.19
31121;BME280;17770;45.966;13.632;2023-02-03T04:43:41;101543.00;;;12.78;59.77
31121;BME280;17770;45.966;13.632;2023-02-03T04:46:07;101539.53;;;12.78;59.79
31121;BME280;17770;45.966;13.632;2023-02-03T04:48:33;101549.88;;;12.78;59.68
31121;BME280;17770;45.966;13.632;2023-02-03T04:51:03;101543.03;;;12.77;59.86
31121;BME280;17770;45.966;13.632;2023-02-03T04:53:29;101546.47;;;12.77;59.67
31121;BME280;17770;45.966;13.632;2023-02-03T04:55:55;101560.28;;;12.76;60.30
31121;BME280;17770;45.966;13.632;2023-02-03T04:58:21;101555.97;;;12.77;59.91
31121;BME280;17770;45.966;13.632;2023-02-03T05:00:47;101551.66;;;12.76;59.64
31121;BME280;17770;45.966;13.632;2023-02-03T05:03:13;101550.81;;;12.75;59.66
31121;BME280;17770;45.966;13.632;2023-02-03T05:05:39;101560.28;;;12.76;60.08
31121;BME280;17770;45.966;13.632;2023-02-03T05:08:05;101558.59;;;12.75;59.85
31121;BME280;17770;45.966;13.632;2023-02-03T05:10:30;101554.25;;;12.76;59.63
31121;BME280;17770;45.966;13.632;2023-02-03T05:12:56;101559.47;;;12.73;60.20
31121;BME280;17770;45.966;13.632;2023-02-03T05:15:22;101551.69;;;12.74;59.52
31121;BME280;17770;45.966;13.632;2023-02-03T05:17:50;101548.25;;;12.74;60.08
31121;BME280;17770;45.966;13.632;2023-02-03T05:20:16;101540.50;;;12.74;59.75
31121;BME280;17770;45.966;13.632;2023-02-03T05:22:42;101548.25;;;12.74;59.40
31121;BME280;17770;45.966;13.632;2023-02-03T05:25:08;101546.53;;;12.73;59.47
31121;BME280;17770;45.966;13.632;2023-02-03T05:27:36;101541.41;;;12.71;59.82
31121;BME280;17770;45.966;13.632;2023-02-03T05:30:02;101538.81;;;12.71;59.17
31121;BME280;17770;45.966;13.632;2023-02-03T05:32:28;101546.56;;;12.71;60.00
31121;BME280;17770;45.966;13.632;2023-02-03T05:34:53;101556.91;;;12.71;59.28
31121;BME280;17770;45.966;13.632;2023-02-03T05:37:19;101544.88;;;12.70;59.21
31121;BME280;17770;45.966;13.632;2023-02-03T05:39:45;101554.34;;;12.71;59.54
31121;BME280;17770;45.966;13.632;2023-02-03T05:42:11;101560.41;;;12.70;59.52
31121;BME280;17770;45.966;13.632;2023-02-03T05:44:37;101563.00;;;12.70;60.15
31121;BME280;17770;45.966;13.632;2023-02-03T05:47:03;101569.91;;;12.70;59.62
31121;BME280;17770;45.966;13.632;2023-02-03T05:49:29;101582.84;;;12.70;59.82
31121;BME280;17770;45.966;13.632;2023-02-03T05:51:55;101581.13;;;12.69;59.45
31121;BME280;17770;45.966;13.632;2023-02-03T05:54:21;101569.91;;;12.70;59.68
31121;BME280;17770;45.966;13.632;2023-02-03T05:56:47;101569.06;;;12.68;60.24
31121;BME280;17770;45.966;13.632;2023-02-03T05:59:13;101565.66;;;12.67;59.67
31121;BME280;17770;45.966;13.632;2023-02-03T06:01:39;101569.06;;;12.68;60.12
31121;BME280;17770;45.966;13.632;2023-02-03T06:04:05;101570.81;;;12.67;60.02
31121;BME280;17770;45.966;13.632;2023-02-03T06:06:31;101581.16;;;12.67;59.80
31121;BME280;17770;45.966;13.632;2023-02-03T06:09:00;101591.53;;;12.67;60.00
31121;BME280;17770;45.966;13.632;2023-02-03T06:11:26;101602.75;;;12.66;60.03
31121;BME280;17770;45.966;13.632;2023-02-03T06:13:53;101601.00;;;12.67;59.54
31121;BME280;17770;45.966;13.632;2023-02-03T06:16:19;101585.50;;;12.65;60.15
31121;BME280;17770;45.966;13.632;2023-02-03T06:18:45;101591.56;;;12.64;59.41
31121;BME280;17770;45.966;13.632;2023-02-03T06:21:11;101601.03;;;12.65;59.47
31121;BME280;17770;45.966;13.632;2023-02-03T06:23:36;101608.81;;;12.65;59.57
31121;BME280;17770;45.966;13.632;2023-02-03T06:26:02;101621.78;;;12.64;60.17
31121;BME280;17770;45.966;13.632;2023-02-03T06:28:28;101625.19;;;12.64;59.80
31121;BME280;17770;45.966;13.632;2023-02-03T06:30:54;101626.94;;;12.64;60.00
31121;BME280;17770;45.966;13.632;2023-02-03T06:33:20;101629.53;;;12.64;59.18
31121;BME280;17770;45.966;13.632;2023-02-03T06:35:46;101636.44;;;12.63;59.79
31121;BME280;17770;45.966;13.632;2023-02-03T06:38:12;101640.75;;;12.63;59.87
31121;BME280;17770;45.966;13.632;2023-02-03T06:40:38;101646.81;;;12.62;59.50
31121;BME280;17770;45.966;13.632;2023-02-03T06:43:04;101647.69;;;12.62;59.76
31121;BME280;17770;45.966;13.632;2023-02-03T06:45:29;101645.91;;;12.63;59.46
31121;BME280;17770;45.966;13.632;2023-02-03T06:47:55;101652.88;;;12.61;59.89
31121;BME280;17770;45.966;13.632;2023-02-03T06:50:21;101648.53;;;12.61;59.50
31121;BME280;17770;45.966;13.632;2023-02-03T06:52:48;101656.34;;;12.60;59.34
31121;BME280;17770;45.966;13.632;2023-02-03T06:55:14;101671.00;;;12.61;60.17
31121;BME280;17770;45.966;13.632;2023-02-03T06:57:43;101687.38;;;12.60;59.34
31121;BME280;17770;45.966;13.632;2023-02-03T07:00:09;101683.06;;;12.60;60.15
31121;BME280;17770;45.966;13.632;2023-02-03T07:02:36;101673.59;;;12.59;59.51
31121;BME280;17770;45.966;13.632;2023-02-03T07:05:01;101674.44;;;12.60;59.82
31121;BME280;17770;45.966;13.632;2023-02-03T07:07:27;101669.31;;;12.58;59.47
31121;BME280;17770;45.966;13.632;2023-02-03T07:09:54;101657.25;;;12.57;58.99
31121;BME280;17770;45.966;13.632;2023-02-03T07:12:20;101652.06;;;12.57;59.37
31121;BME280;17770;45.966;13.632;2023-02-03T07:14:46;101653.81;;;12.57;60.29
31121;BME280;17770;45.966;13.632;2023-02-03T07:17:12;101653.81;;;12.57;59.32
31121;BME280;17770;45.966;13.632;2023-02-03T07:19:38;101658.13;;;12.56;59.38
31121;BME280;17770;45.966;13.632;2023-02-03T07:22:04;101664.13;;;12.58;59.62
31121;BME280;17770;45.966;13.632;2023-02-03T07:24:29;101667.59;;;12.57;59.74
31121;BME280;17770;45.966;13.632;2023-02-03T07:26:55;101669.31;;;12.57;59.35
31121;BME280;17770;45.966;13.632;2023-02-03T07:29:21;101670.22;;;12.56;59.79
31121;BME280;17770;45.966;13.632;2023-02-03T07:31:47;101666.78;;;12.55;59.71
31121;BME280;17770;45.966;13.632;2023-02-03T07:34:13;101664.16;;;12.57;58.99
31121;BME280;17770;45.966;13.632;2023-02-03T07:36:38;101667.63;;;12.56;59.82
31121;BME280;17770;45.966;13.632;2023-02-03T07:39:05;101661.59;;;12.55;59.88
31121;BME280;17770;45.966;13.632;2023-02-03T07:41:31;101652.09;;;12.56;59.53
31121;BME280;17770;45.966;13.632;2023-02-03T07:43:57;101635.75;;;12.54;59.40
31121;BME280;17770;45.966;13.632;2023-02-03T07:46:23;101634.84;;;12.55;59.38
31121;BME280;17770;45.966;13.632;2023-02-03T07:48:49;101635.75;;;12.54;60.07
31121;BME280;17770;45.966;13.632;2023-02-03T07:51:15;101631.44;;;12.54;58.77
31121;BME280;17770;45.966;13.632;2023-02-03T07:53:40;101628.84;;;12.53;59.31
31121;BME280;17770;45.966;13.632;2023-02-03T07:56:06;101619.34;;;12.53;59.01
31121;BME280;17770;45.966;13.632;2023-02-03T07:58:32;101609.88;;;12.54;59.38
31121;BME280;17770;45.966;13.632;2023-02-03T08:00:58;101606.44;;;12.53;59.09
31121;BME280;17770;45.966;13.632;2023-02-03T08:03:24;101615.91;;;12.53;60.06
31121;BME280;17770;45.966;13.632;2023-02-03T08:05:50;101612.50;;;12.52;59.55
31121;BME280;17770;45.966;13.632;2023-02-03T08:08:16;101598.66;;;12.53;59.21
31121;BME280;17770;45.966;13.632;2023-02-03T08:10:42;101596.97;;;12.52;59.68
31121;BME280;17770;45.966;13.632;2023-02-03T08:13:08;101586.59;;;12.54;58.82
31121;BME280;17770;45.966;13.632;2023-02-03T08:15:34;101591.78;;;12.52;59.27
31121;BME280;17770;45.966;13.632;2023-02-03T08:18:00;101598.69;;;12.52;59.54
31121;BME280;17770;45.966;13.632;2023-02-03T08:20:26;101605.59;;;12.51;59.14
31121;BME280;17770;45.966;13.632;2023-02-03T08:22:52;101594.41;;;12.51;58.88
31121;BME280;17770;45.966;13.632;2023-02-03T08:25:18;101586.66;;;12.51;59.65
31121;BME280;17770;45.966;13.632;2023-02-03T08:27:44;101599.59;;;12.51;59.18
31121;BME280;17770;45.966;13.632;2023-02-03T08:30:11;101597.81;;;12.51;59.84
31121;BME280;17770;45.966;13.632;2023-02-03T08:32:37;101599.56;;;12.52;59.19
31121;BME280;17770;45.966;13.632;2023-02-03T08:35:03;101588.38;;;12.50;58.87
31121;BME280;17770;45.966;13.632;2023-02-03T08:37:29;101587.47;;;12.51;58.85
31121;BME280;17770;45.966;13.632;2023-02-03T08:39:57;101580.59;;;12.52;59.12
31121;BME280;17770;45.966;13.632;2023-02-03T08:42:23;101588.34;;;12.52;59.49
31121;BME280;17770;45.966;13.632;2023-02-03T08:44:49;101579.72;;;12.51;59.57
31121;BME280;17770;45.966;13.632;2023-02-03T08:47:15;101584.06;;;12.51;58.85
31121;BME280;17770;45.966;13.632;2023-02-03T08:49:41;101586.66;;;12.51;58.81
31121;BME280;17770;45.966;13.632;2023-02-03T08:52:09;101591.81;;;12.51;59.24
31121;BME280;17770;45.966;13.632;2023-02-03T08:54:35;101597.00;;;12.51;59.73
31121;BME280;17770;45.966;13.632;2023-02-03T08:57:01;101593.56;;;12.50;59.43
31121;BME280;17770;45.966;13.632;2023-02-03T08:59:27;101594.41;;;12.51;59.50
31121;BME280;17770;45.966;13.632;2023-02-03T09:01:54;101584.91;;;12.51;60.31
31121;BME280;17770;45.966;13.632;2023-02-03T09:04:20;101581.50;;;12.49;59.53
31121;BME280;17770;45.966;13.632;2023-02-03T09:06:50;101584.06;;;12.51;59.46
31121;BME280;17770;45.966;13.632;2023-02-03T09:09:16;101589.22;;;12.51;60.18
31121;BME280;17770;45.966;13.632;2023-02-03T09:11:42;101591.81;;;12.51;59.16
31121;BME280;17770;45.966;13.632;2023-02-03T09:14:08;101591.81;;;12.51;59.65
31121;BME280;17770;45.966;13.632;2023-02-03T09:16:34;101601.31;;;12.50;59.47
31121;BME280;17770;45.966;13.632;2023-02-03T09:19:00;101613.34;;;12.51;59.83
31121;BME280;17770;45.966;13.632;2023-02-03T09:21:26;101620.28;;;12.51;59.25
31121;BME280;17770;45.966;13.632;2023-02-03T09:23:52;101612.53;;;12.51;59.01
31121;BME280;17770;45.966;13.632;2023-02-03T09:26:18;101618.56;;;12.50;59.29
31121;BME280;17770;45.966;13.632;2023-02-03T09:28:44;101605.63;;;12.50;59.82
31121;BME280;17770;45.966;13.632;2023-02-03T09:31:11;101613.38;;;12.50;58.89
31121;BME280;17770;45.966;13.632;2023-02-03T09:33:37;101613.38;;;12.50;58.94
31121;BME280;17770;45.966;13.632;2023-02-03T09:36:04;101614.25;;;12.50;59.14
31121;BME280;17770;45.966;13.632;2023-02-03T09:38:30;101611.66;;;12.50;59.02
31121;BME280;17770;45.966;13.632;2023-02-03T09:46:11;101629.78;;;12.49;59.74
31121;BME280;17770;45.966;13.632;2023-02-03T09:48:43;101636.69;;;12.48;59.60
31121;BME280;17770;45.966;13.632;2023-02-03T09:51:17;101643.59;;;12.49;59.55
31121;BME280;17770;45.966;13.632;2023-02-03T09:53:45;101638.41;;;12.49;58.73
31121;BME280;17770;45.966;13.632;2023-02-03T09:56:33;101633.19;;;12.52;58.25
31121;BME280;17770;45.966;13.632;2023-02-03T09:58:59;101631.47;;;12.51;59.06
31121;BME280;17770;45.966;13.632;2023-02-03T10:01:27;101622.88;;;12.51;59.27
31121;BME280;17770;45.966;13.632;2023-02-03T10:04:03;101624.59;;;12.50;58.85
31121;BME280;17770;45.966;13.632;2023-02-03T10:06:36;101624.59;;;12.50;59.45
31121;BME280;17770;45.966;13.632;2023-02-03T10:22:16;101582.38;;;12.48;59.63
31121;BME280;17770;45.966;13.632;2023-02-03T10:24:51;101568.56;;;12.49;59.05
31121;BME280;17770;45.966;13.632;2023-02-03T10:27:19;101572.84;;;12.50;59.35
31121;BME280;17770;45.966;13.632;2023-02-03T10:30:10;101569.41;;;12.50;58.94
31121;BME280;17770;45.966;13.632;2023-02-03T10:32:32;101575.47;;;12.49;59.01
31121;BME280;17770;45.966;13.632;2023-02-03T10:35:00;101572.00;;;12.50;59.10
31121;BME280;17770;45.966;13.632;2023-02-03T10:37:27;101568.56;;;12.48;58.48
31121;BME280;17770;45.966;13.632;2023-02-03T10:39:54;101564.25;;;12.48;59.16
31121;BME280;17770;45.966;13.632;2023-02-03T10:42:21;101561.63;;;12.50;59.56
31121;BME280;17770;45.966;13.632;2023-02-03T10:44:48;101559.94;;;12.49;58.41
31121;BME280;17770;45.966;13.632;2023-02-03T10:49:45;101545.28;;;12.49;58.24
31121;BME280;17770;45.966;13.632;2023-02-03T10:52:23;101536.63;;;12.50;58.65
31121;BME280;17770;45.966;13.632;2023-02-03T10:54:49;101530.59;;;12.50;59.08
31121;BME280;17770;45.966;13.632;2023-02-03T10:57:15;101530.59;;;12.50;59.47
31121;BME280;17770;45.966;13.632;2023-02-03T10:59:42;101525.41;;;12.50;58.87
31121;BME280;17770;45.966;13.632;2023-02-03T11:02:20;101519.38;;;12.51;59.24
31121;BME280;17770;45.966;13.632;2023-02-03T11:04:46;101510.72;;;12.52;59.33
31121;BME280;17770;45.966;13.632;2023-02-03T11:07:25;101507.28;;;12.51;59.68
31121;BME280;17770;45.966;13.632;2023-02-03T11:09:51;101502.94;;;12.53;58.98
31121;BME280;17770;45.966;13.632;2023-02-03T11:12:18;101497.75;;;12.53;59.32
31121;BME280;17770;45.966;13.632;2023-02-03T11:14:48;101495.13;;;12.55;59.12
31121;BME280;17770;45.966;13.632;2023-02-03T11:17:18;101490.00;;;12.53;59.31
31121;BME280;17770;45.966;13.632;2023-02-03T11:19:45;101483.97;;;12.53;59.07
31121;BME280;17770;45.966;13.632;2023-02-03T11:22:12;101483.13;;;12.52;59.29
31121;BME280;17770;45.966;13.632;2023-02-03T11:24:40;101478.78;;;12.53;59.26
31121;BME280;17770;45.966;13.632;2023-02-03T11:27:08;101475.34;;;12.54;59.16
31121;BME280;17770;45.966;13.632;2023-02-03T11:29:51;101460.69;;;12.53;58.60
31121;BME280;17770;45.966;13.632;2023-02-03T11:32:27;101459.84;;;12.52;59.07
31121;BME280;17770;45.966;13.632;2023-02-03T11:34:56;101460.69;;;12.53;59.05
31121;BME280;17770;45.966;13.632;2023-02-03T11:37:39;101450.34;;;12.51;58.67
31121;BME280;17770;45.966;13.632;2023-02-03T11:42:32;101446.03;;;12.52;59.29
31121;BME280;17770;45.966;13.632;2023-02-03T11:48:27;101437.44;;;12.51;58.71
31121;BME280;17770;45.966;13.632;2023-02-03T11:50:44;101436.59;;;12.51;59.03
31121;BME280;17770;45.966;13.632;2023-02-03T11:53:15;101442.56;;;12.53;59.02
31121;BME280;17770;45.966;13.632;2023-02-03T12:01:06;101437.38;;;12.53;59.06
31121;BME280;17770;45.966;13.632;2023-02-03T12:03:41;101429.66;;;12.51;59.35
31121;BME280;17770;45.966;13.632;2023-02-03T12:06:26;101430.53;;;12.52;59.23
31121;BME280;17770;45.966;13.632;2023-02-03T12:09:18;101425.31;;;12.53;59.57
31121;BME280;17770;45.966;13.632;2023-02-03T12:22:39;101385.66;;;12.53;59.67
31121;BME280;17770;45.966;13.632;2023-02-03T12:25:25;101375.28;;;12.54;59.07
31121;BME280;17770;45.966;13.632;2023-02-03T12:28:15;101369.25;;;12.54;59.91
31121;BME280;17770;45.966;13.632;2023-02-03T12:30:42;101371.84;;;12.54;60.03
31121;BME280;17770;45.966;13.632;2023-02-03T12:33:11;101374.41;;;12.55;59.64
31121;BME280;17770;45.966;13.632;2023-02-03T12:35:58;101368.31;;;12.56;59.62
31121;BME280;17770;45.966;13.632;2023-02-03T12:38:47;101370.91;;;12.56;60.04
31121;BME280;17770;45.966;13.632;2023-02-03T12:41:20;101376.09;;;12.56;60.44
31121;BME280;17770;45.966;13.632;2023-02-03T12:43:50;101381.22;;;12.58;60.42
31121;BME280;17770;45.966;13.632;2023-02-03T12:46:25;101370.00;;;12.59;59.99
31121;BME280;17770;45.966;13.632;2023-02-03T12:54:00;101352.72;;;12.61;60.41
31121;BME280;17770;45.966;13.632;2023-02-03T12:56:33;101340.63;;;12.61;60.65
31121;BME280;17770;45.966;13.632;2023-02-03T12:59:05;101334.59;;;12.62;60.10
31121;BME280;17770;45.966;13.632;2023-02-03T13:01:35;101319.06;;;12.62;60.79
31121;BME280;17770;45.966;13.632;2023-02-03T13:04:07;101304.34;;;12.63;59.56
31121;BME280;17770;45.966;13.632;2023-02-03T13:06:42;101307.81;;;12.63;60.96
31121;BME280;17770;45.966;13.632;2023-02-03T13:09:26;101303.44;;;12.65;59.91
31121;BME280;17770;45.966;13.632;2023-02-03T13:14:37;101288.75;;;12.67;60.18
31121;BME280;17770;45.966;13.632;2023-02-03T13:17:11;101286.16;;;12.67;59.77
31121;BME280;17770;45.966;13.632;2023-02-03T13:19:41;101277.50;;;12.68;59.90
31121;BME280;17770;45.966;13.632;2023-02-03T13:22:10;101269.69;;;12.70;59.88
31121;BME280;17770;45.966;13.632;2023-02-03T13:24:36;101266.25;;;12.69;60.06
31121;BME280;17770;45.966;13.632;2023-02-03T13:29:58;101267.06;;;12.71;60.32
31121;BME280;17770;45.966;13.632;2023-02-03T13:40:57;101272.13;;;12.76;60.99
31121;BME280;17770;45.966;13.632;2023-02-03T13:43:18;101269.53;;;12.77;60.30
31121;BME280;17770;45.966;13.632;2023-02-03T13:45:48;101265.19;;;12.78;60.15
31121;BME280;17770;45.966;13.632;2023-02-03T13:48:22;101254.78;;;12.79;60.77
31121;BME280;17770;45.966;13.632;2023-02-03T13:50:50;101246.19;;;12.79;60.09
31121;BME280;17770;45.966;13.632;2023-02-03T13:53:26;101253.88;;;12.82;61.45
31121;BME280;17770;45.966;13.632;2023-02-03T13:56:00;101254.75;;;12.82;60.62
31121;BME280;17770;45.966;13.632;2023-02-03T13:58:28;101253.00;;;12.83;60.18
31121;BME280;17770;45.966;13.632;2023-02-03T14:05:50;101248.59;;;12.86;60.45
31121;BME280;17770;45.966;13.632;2023-02-03T14:13:35;101239.00;;;12.90;60.62
31121;BME280;17770;45.966;13.632;2023-02-03T14:18:45;101228.63;;;12.91;61.24
31121;BME280;17770;45.966;13.632;2023-02-03T14:21:12;101235.47;;;12.92;61.36
31121;BME280;17770;45.966;13.632;2023-02-03T14:23:44;101221.66;;;12.93;61.85